sensor_id;sensor_type;location;lat;lon;timestamp;P1;durP1;ratioP1;P2;durP2;ratioP2
24459;SDS011;12630;50.860;5.714;2022-12-18T00:01:00;28.85;;;13.38;;
24459;SDS011;12630;50.860;5.714;2022-12-18T00:03:31;36.85;;;14.18;;
24459;SDS011;12630;50.860;5.714;2022-12-18T00:05:58;35.17;;;13.38;;
24459;SDS011;12630;50.860;5.714;2022-12-18T00:08:26;27.88;;;13.38;;
24459;SDS011;12630;50.860;5.714;2022-12-18T00:10:55;30.63;;;13.70;;
24459;SDS011;12630;50.860;5.714;2022-12-18T00:13:29;32.28;;;13.82;;
24459;SDS011;12630;50.860;5.714;2022-12-18T00:16:00;35.67;;;14.07;;
24459;SDS011;12630;50.860;5.714;2022-12-18T00:18:30;37.60;;;14.70;;
24459;SDS011;12630;50.860;5.714;2022-12-18T00:20:58;31.48;;;13.50;;
24459;SDS011;12630;50.860;5.714;2022-12-18T00:23:26;31.80;;;13.25;;
24459;SDS011;12630;50.860;5.714;2022-12-18T00:25:58;31.55;;;14.18;;
24459;SDS011;12630;50.860;5.714;2022-12-18T00:28:25;27.70;;;12.32;;
24459;SDS011;12630;50.860;5.714;2022-12-18T00:30:58;27.13;;;12.77;;
24459;SDS011;12630;50.860;5.714;2022-12-18T00:33:26;25.73;;;14.52;;
24459;SDS011;12630;50.860;5.714;2022-12-18T00:35:54;31.95;;;13.35;;
24459;SDS011;12630;50.860;5.714;2022-12-18T00:38:26;33.13;;;13.40;;
24459;SDS011;12630;50.860;5.714;2022-12-18T00:40:54;30.13;;;13.88;;
24459;SDS011;12630;50.860;5.714;2022-12-18T00:43:22;30.30;;;13.30;;
24459;SDS011;12630;50.860;5.714;2022-12-18T00:45:48;27.80;;;11.88;;
24459;SDS011;12630;50.860;5.714;2022-12-18T00:48:15;37.90;;;13.93;;
24459;SDS011;12630;50.860;5.714;2022-12-18T00:50:42;26.95;;;12.85;;
24459;SDS011;12630;50.860;5.714;2022-12-18T00:53:09;30.80;;;12.45;;
24459;SDS011;12630;50.860;5.714;2022-12-18T00:55:37;27.83;;;12.77;;
24459;SDS011;12630;50.860;5.714;2022-12-18T00:58:07;28.85;;;12.85;;
24459;SDS011;12630;50.860;5.714;2022-12-18T01:00:34;32.83;;;13.17;;
24459;SDS011;12630;50.860;5.714;2022-12-18T01:03:02;37.33;;;13.35;;
24459;SDS011;12630;50.860;5.714;2022-12-18T01:05:29;28.48;;;12.05;;
24459;SDS011;12630;50.860;5.714;2022-12-18T01:07:57;25.67;;;11.20;;
24459;SDS011;12630;50.860;5.714;2022-12-18T01:10:25;26.08;;;11.70;;
24459;SDS011;12630;50.860;5.714;2022-12-18T01:12:52;23.60;;;11.52;;
24459;SDS011;12630;50.860;5.714;2022-12-18T01:15:20;28.00;;;12.30;;
24459;SDS011;12630;50.860;5.714;2022-12-18T01:17:48;26.50;;;10.40;;
24459;SDS011;12630;50.860;5.714;2022-12-18T01:20:15;22.85;;;11.20;;
24459;SDS011;12630;50.860;5.714;2022-12-18T01:22:42;25.33;;;10.25;;
24459;SDS011;12630;50.860;5.714;2022-12-18T01:25:09;29.13;;;10.45;;
24459;SDS011;12630;50.860;5.714;2022-12-18T01:27:36;30.45;;;12.55;;
24459;SDS011;12630;50.860;5.714;2022-12-18T01:30:04;26.67;;;10.75;;
24459;SDS011;12630;50.860;5.714;2022-12-18T01:32:33;23.52;;;10.32;;
24459;SDS011;12630;50.860;5.714;2022-12-18T01:35:00;22.90;;;10.13;;
24459;SDS011;12630;50.860;5.714;2022-12-18T01:37:28;23.50;;;10.10;;
24459;SDS011;12630;50.860;5.714;2022-12-18T01:39:55;29.42;;;10.90;;
24459;SDS011;12630;50.860;5.714;2022-12-18T01:42:22;31.92;;;12.88;;
24459;SDS011;12630;50.860;5.714;2022-12-18T01:44:53;16.90;;;8.07;;
24459;SDS011;12630;50.860;5.714;2022-12-18T01:47:23;26.08;;;9.07;;
24459;SDS011;12630;50.860;5.714;2022-12-18T01:49:55;24.30;;;11.13;;
24459;SDS011;12630;50.860;5.714;2022-12-18T01:52:23;23.80;;;9.65;;
24459;SDS011;12630;50.860;5.714;2022-12-18T01:54:52;20.95;;;10.32;;
24459;SDS011;12630;50.860;5.714;2022-12-18T01:57:21;19.70;;;9.10;;
24459;SDS011;12630;50.860;5.714;2022-12-18T01:59:51;20.65;;;9.80;;
24459;SDS011;12630;50.860;5.714;2022-12-18T02:02:20;23.00;;;10.10;;
24459;SDS011;12630;50.860;5.714;2022-12-18T02:04:48;24.02;;;10.68;;
24459;SDS011;12630;50.860;5.714;2022-12-18T02:07:20;25.30;;;9.57;;
24459;SDS011;12630;50.860;5.714;2022-12-18T02:09:56;16.58;;;8.70;;
24459;SDS011;12630;50.860;5.714;2022-12-18T02:12:28;19.15;;;9.48;;
24459;SDS011;12630;50.860;5.714;2022-12-18T02:15:03;22.17;;;9.98;;
24459;SDS011;12630;50.860;5.714;2022-12-18T02:17:35;25.48;;;10.10;;
24459;SDS011;12630;50.860;5.714;2022-12-18T02:20:09;18.42;;;8.73;;
24459;SDS011;12630;50.860;5.714;2022-12-18T02:22:43;17.88;;;9.20;;
24459;SDS011;12630;50.860;5.714;2022-12-18T02:25:24;21.63;;;10.27;;
24459;SDS011;12630;50.860;5.714;2022-12-18T02:28:01;16.65;;;8.85;;
24459;SDS011;12630;50.860;5.714;2022-12-18T02:30:33;18.40;;;9.68;;
24459;SDS011;12630;50.860;5.714;2022-12-18T02:33:01;17.38;;;9.48;;
24459;SDS011;12630;50.860;5.714;2022-12-18T02:35:31;21.80;;;9.60;;
24459;SDS011;12630;50.860;5.714;2022-12-18T02:38:00;21.65;;;10.32;;
24459;SDS011;12630;50.860;5.714;2022-12-18T02:40:29;23.05;;;11.25;;
24459;SDS011;12630;50.860;5.714;2022-12-18T02:43:03;28.67;;;11.20;;
24459;SDS011;12630;50.860;5.714;2022-12-18T02:45:34;30.38;;;11.07;;
24459;SDS011;12630;50.860;5.714;2022-12-18T02:48:01;24.85;;;12.38;;
24459;SDS011;12630;50.860;5.714;2022-12-18T02:50:30;25.13;;;12.73;;
24459;SDS011;12630;50.860;5.714;2022-12-18T02:53:04;26.40;;;12.45;;
24459;SDS011;12630;50.860;5.714;2022-12-18T02:55:41;22.77;;;12.07;;
24459;SDS011;12630;50.860;5.714;2022-12-18T02:58:19;26.35;;;12.30;;
24459;SDS011;12630;50.860;5.714;2022-12-18T03:00:53;31.15;;;14.20;;
24459;SDS011;12630;50.860;5.714;2022-12-18T03:03:28;28.35;;;13.52;;
24459;SDS011;12630;50.860;5.714;2022-12-18T03:06:01;29.02;;;12.15;;
24459;SDS011;12630;50.860;5.714;2022-12-18T03:08:34;29.75;;;13.57;;
24459;SDS011;12630;50.860;5.714;2022-12-18T03:11:06;29.88;;;12.77;;
24459;SDS011;12630;50.860;5.714;2022-12-18T03:13:39;24.42;;;11.65;;
24459;SDS011;12630;50.860;5.714;2022-12-18T03:16:11;24.45;;;11.73;;
24459;SDS011;12630;50.860;5.714;2022-12-18T03:18:42;21.63;;;11.20;;
24459;SDS011;12630;50.860;5.714;2022-12-18T03:21:14;20.13;;;10.50;;
24459;SDS011;12630;50.860;5.714;2022-12-18T03:23:47;21.17;;;10.57;;
24459;SDS011;12630;50.860;5.714;2022-12-18T03:28:47;25.65;;;12.90;;
24459;SDS011;12630;50.860;5.714;2022-12-18T03:31:16;23.42;;;11.43;;
24459;SDS011;12630;50.860;5.714;2022-12-18T03:33:47;21.80;;;11.25;;
24459;SDS011;12630;50.860;5.714;2022-12-18T03:36:18;18.65;;;11.10;;
24459;SDS011;12630;50.860;5.714;2022-12-18T03:38:45;24.58;;;11.32;;
24459;SDS011;12630;50.860;5.714;2022-12-18T03:41:15;22.50;;;10.65;;
24459;SDS011;12630;50.860;5.714;2022-12-18T03:43:49;30.15;;;13.18;;
24459;SDS011;12630;50.860;5.714;2022-12-18T03:46:24;29.45;;;12.90;;
24459;SDS011;12630;50.860;5.714;2022-12-18T03:48:58;32.38;;;13.82;;
24459;SDS011;12630;50.860;5.714;2022-12-18T03:51:29;25.02;;;12.40;;
24459;SDS011;12630;50.860;5.714;2022-12-18T03:54:04;24.10;;;10.25;;
24459;SDS011;12630;50.860;5.714;2022-12-18T03:56:36;20.05;;;11.00;;
24459;SDS011;12630;50.860;5.714;2022-12-18T03:59:07;22.65;;;10.13;;
24459;SDS011;12630;50.860;5.714;2022-12-18T04:01:38;20.17;;;9.80;;
24459;SDS011;12630;50.860;5.714;2022-12-18T04:04:09;21.25;;;10.23;;
24459;SDS011;12630;50.860;5.714;2022-12-18T04:06:39;20.05;;;9.73;;
24459;SDS011;12630;50.860;5.714;2022-12-18T04:09:07;20.23;;;10.02;;
24459;SDS011;12630;50.860;5.714;2022-12-18T04:11:35;17.85;;;9.25;;
24459;SDS011;12630;50.860;5.714;2022-12-18T04:14:02;18.00;;;10.00;;
24459;SDS011;12630;50.860;5.714;2022-12-18T04:16:30;22.33;;;9.95;;
24459;SDS011;12630;50.860;5.714;2022-12-18T04:18:58;23.42;;;11.07;;
24459;SDS011;12630;50.860;5.714;2022-12-18T04:21:25;22.13;;;10.98;;
24459;SDS011;12630;50.860;5.714;2022-12-18T04:23:52;26.00;;;11.10;;
24459;SDS011;12630;50.860;5.714;2022-12-18T04:26:19;24.40;;;11.30;;
24459;SDS011;12630;50.860;5.714;2022-12-18T04:28:47;26.15;;;12.00;;
24459;SDS011;12630;50.860;5.714;2022-12-18T04:31:14;26.20;;;11.48;;
24459;SDS011;12630;50.860;5.714;2022-12-18T04:33:42;26.60;;;12.73;;
24459;SDS011;12630;50.860;5.714;2022-12-18T04:36:10;23.92;;;11.90;;
24459;SDS011;12630;50.860;5.714;2022-12-18T04:38:38;25.67;;;13.30;;
24459;SDS011;12630;50.860;5.714;2022-12-18T04:41:05;30.92;;;13.80;;
24459;SDS011;12630;50.860;5.714;2022-12-18T04:43:32;27.52;;;13.57;;
24459;SDS011;12630;50.860;5.714;2022-12-18T04:46:03;29.35;;;12.95;;
24459;SDS011;12630;50.860;5.714;2022-12-18T04:48:31;35.58;;;14.05;;
24459;SDS011;12630;50.860;5.714;2022-12-18T04:51:00;35.88;;;15.18;;
24459;SDS011;12630;50.860;5.714;2022-12-18T04:53:27;24.65;;;11.07;;
24459;SDS011;12630;50.860;5.714;2022-12-18T04:56:01;38.60;;;14.45;;
24459;SDS011;12630;50.860;5.714;2022-12-18T04:58:30;32.40;;;14.13;;
24459;SDS011;12630;50.860;5.714;2022-12-18T05:00:57;23.75;;;13.02;;
24459;SDS011;12630;50.860;5.714;2022-12-18T05:03:24;28.35;;;12.73;;
24459;SDS011;12630;50.860;5.714;2022-12-18T05:05:52;33.15;;;13.98;;
24459;SDS011;12630;50.860;5.714;2022-12-18T05:08:21;35.25;;;13.90;;
24459;SDS011;12630;50.860;5.714;2022-12-18T05:10:48;27.33;;;12.57;;
24459;SDS011;12630;50.860;5.714;2022-12-18T05:13:15;26.08;;;11.43;;
24459;SDS011;12630;50.860;5.714;2022-12-18T05:15:42;25.55;;;11.00;;
24459;SDS011;12630;50.860;5.714;2022-12-18T05:18:18;22.23;;;10.80;;
24459;SDS011;12630;50.860;5.714;2022-12-18T05:20:45;24.02;;;12.02;;
24459;SDS011;12630;50.860;5.714;2022-12-18T05:23:12;25.27;;;10.98;;
24459;SDS011;12630;50.860;5.714;2022-12-18T05:25:41;23.70;;;10.77;;
24459;SDS011;12630;50.860;5.714;2022-12-18T05:28:08;28.33;;;11.20;;
24459;SDS011;12630;50.860;5.714;2022-12-18T05:30:35;21.65;;;11.20;;
24459;SDS011;12630;50.860;5.714;2022-12-18T05:33:03;27.92;;;11.60;;
24459;SDS011;12630;50.860;5.714;2022-12-18T05:35:30;23.92;;;11.95;;
24459;SDS011;12630;50.860;5.714;2022-12-18T05:37:57;18.60;;;9.32;;
24459;SDS011;12630;50.860;5.714;2022-12-18T05:40:24;22.38;;;10.95;;
24459;SDS011;12630;50.860;5.714;2022-12-18T05:42:53;25.70;;;10.63;;
24459;SDS011;12630;50.860;5.714;2022-12-18T05:45:20;26.60;;;11.73;;
24459;SDS011;12630;50.860;5.714;2022-12-18T05:47:47;24.38;;;11.15;;
24459;SDS011;12630;50.860;5.714;2022-12-18T05:50:14;19.50;;;10.18;;
24459;SDS011;12630;50.860;5.714;2022-12-18T05:52:42;19.70;;;9.65;;
24459;SDS011;12630;50.860;5.714;2022-12-18T05:55:09;23.85;;;11.38;;
24459;SDS011;12630;50.860;5.714;2022-12-18T05:57:36;19.63;;;10.18;;
24459;SDS011;12630;50.860;5.714;2022-12-18T06:00:05;29.00;;;13.80;;
24459;SDS011;12630;50.860;5.714;2022-12-18T06:02:34;23.83;;;11.63;;
24459;SDS011;12630;50.860;5.714;2022-12-18T06:05:01;25.23;;;11.05;;
24459;SDS011;12630;50.860;5.714;2022-12-18T06:07:28;27.35;;;10.73;;
24459;SDS011;12630;50.860;5.714;2022-12-18T06:09:55;24.33;;;11.07;;
24459;SDS011;12630;50.860;5.714;2022-12-18T06:12:22;20.23;;;10.52;;
24459;SDS011;12630;50.860;5.714;2022-12-18T06:14:50;17.95;;;9.00;;
24459;SDS011;12630;50.860;5.714;2022-12-18T06:17:18;18.60;;;9.50;;
24459;SDS011;12630;50.860;5.714;2022-12-18T06:19:46;18.52;;;8.43;;
24459;SDS011;12630;50.860;5.714;2022-12-18T06:22:13;15.00;;;6.82;;
24459;SDS011;12630;50.860;5.714;2022-12-18T06:24:40;18.45;;;8.60;;
24459;SDS011;12630;50.860;5.714;2022-12-18T06:27:07;20.85;;;8.60;;
24459;SDS011;12630;50.860;5.714;2022-12-18T06:29:35;16.85;;;8.18;;
24459;SDS011;12630;50.860;5.714;2022-12-18T06:32:02;18.73;;;8.43;;
24459;SDS011;12630;50.860;5.714;2022-12-18T06:34:31;23.33;;;9.05;;
24459;SDS011;12630;50.860;5.714;2022-12-18T06:36:58;16.55;;;9.15;;
24459;SDS011;12630;50.860;5.714;2022-12-18T06:39:26;19.60;;;8.20;;
24459;SDS011;12630;50.860;5.714;2022-12-18T06:41:54;16.92;;;8.57;;
24459;SDS011;12630;50.860;5.714;2022-12-18T06:44:21;18.65;;;7.22;;
24459;SDS011;12630;50.860;5.714;2022-12-18T06:46:48;17.63;;;9.00;;
24459;SDS011;12630;50.860;5.714;2022-12-18T06:49:16;15.45;;;7.47;;
24459;SDS011;12630;50.860;5.714;2022-12-18T06:51:44;11.93;;;5.90;;
24459;SDS011;12630;50.860;5.714;2022-12-18T06:54:12;14.73;;;7.72;;
24459;SDS011;12630;50.860;5.714;2022-12-18T06:56:39;15.82;;;7.28;;
24459;SDS011;12630;50.860;5.714;2022-12-18T06:59:06;18.17;;;10.43;;
24459;SDS011;12630;50.860;5.714;2022-12-18T07:01:33;10.75;;;6.80;;
24459;SDS011;12630;50.860;5.714;2022-12-18T07:04:01;16.83;;;7.07;;
24459;SDS011;12630;50.860;5.714;2022-12-18T07:06:28;14.63;;;7.13;;
24459;SDS011;12630;50.860;5.714;2022-12-18T07:08:56;9.48;;;5.57;;
24459;SDS011;12630;50.860;5.714;2022-12-18T07:11:24;10.27;;;5.07;;
24459;SDS011;12630;50.860;5.714;2022-12-18T07:13:51;12.02;;;6.00;;
24459;SDS011;12630;50.860;5.714;2022-12-18T07:16:20;7.80;;;4.70;;
24459;SDS011;12630;50.860;5.714;2022-12-18T07:18:47;11.35;;;5.78;;
24459;SDS011;12630;50.860;5.714;2022-12-18T07:21:15;9.82;;;4.90;;
24459;SDS011;12630;50.860;5.714;2022-12-18T07:23:44;12.50;;;5.80;;
24459;SDS011;12630;50.860;5.714;2022-12-18T07:26:15;7.47;;;4.70;;
24459;SDS011;12630;50.860;5.714;2022-12-18T07:28:43;12.48;;;6.07;;
24459;SDS011;12630;50.860;5.714;2022-12-18T07:31:11;15.75;;;7.53;;
24459;SDS011;12630;50.860;5.714;2022-12-18T07:33:39;17.25;;;6.78;;
24459;SDS011;12630;50.860;5.714;2022-12-18T07:36:07;10.57;;;6.47;;
24459;SDS011;12630;50.860;5.714;2022-12-18T07:38:37;13.27;;;6.75;;
24459;SDS011;12630;50.860;5.714;2022-12-18T07:41:05;11.32;;;5.80;;
24459;SDS011;12630;50.860;5.714;2022-12-18T07:43:35;12.07;;;5.70;;
24459;SDS011;12630;50.860;5.714;2022-12-18T07:46:04;11.00;;;5.93;;
24459;SDS011;12630;50.860;5.714;2022-12-18T07:48:31;11.90;;;5.65;;
24459;SDS011;12630;50.860;5.714;2022-12-18T07:50:58;14.18;;;7.15;;
24459;SDS011;12630;50.860;5.714;2022-12-18T07:53:26;13.15;;;6.07;;
24459;SDS011;12630;50.860;5.714;2022-12-18T07:55:55;13.02;;;6.50;;
24459;SDS011;12630;50.860;5.714;2022-12-18T07:58:23;11.77;;;5.63;;
24459;SDS011;12630;50.860;5.714;2022-12-18T08:00:52;11.98;;;5.95;;
24459;SDS011;12630;50.860;5.714;2022-12-18T08:03:19;13.75;;;6.22;;
24459;SDS011;12630;50.860;5.714;2022-12-18T08:05:46;11.00;;;5.70;;
24459;SDS011;12630;50.860;5.714;2022-12-18T08:08:16;14.95;;;5.38;;
24459;SDS011;12630;50.860;5.714;2022-12-18T08:10:44;13.27;;;6.70;;
24459;SDS011;12630;50.860;5.714;2022-12-18T08:13:12;13.25;;;5.85;;
24459;SDS011;12630;50.860;5.714;2022-12-18T08:15:39;12.52;;;6.70;;
24459;SDS011;12630;50.860;5.714;2022-12-18T08:18:08;12.07;;;6.50;;
24459;SDS011;12630;50.860;5.714;2022-12-18T08:20:35;20.05;;;7.10;;
24459;SDS011;12630;50.860;5.714;2022-12-18T08:23:03;13.15;;;7.05;;
24459;SDS011;12630;50.860;5.714;2022-12-18T08:25:30;13.68;;;7.07;;
24459;SDS011;12630;50.860;5.714;2022-12-18T08:27:57;15.90;;;8.27;;
24459;SDS011;12630;50.860;5.714;2022-12-18T08:30:24;13.35;;;6.60;;
24459;SDS011;12630;50.860;5.714;2022-12-18T08:32:51;12.50;;;7.13;;
24459;SDS011;12630;50.860;5.714;2022-12-18T08:35:20;16.98;;;8.10;;
24459;SDS011;12630;50.860;5.714;2022-12-18T08:37:47;18.17;;;7.93;;
24459;SDS011;12630;50.860;5.714;2022-12-18T08:40:15;17.02;;;8.15;;
24459;SDS011;12630;50.860;5.714;2022-12-18T08:42:42;14.95;;;6.63;;
24459;SDS011;12630;50.860;5.714;2022-12-18T08:45:27;11.25;;;6.88;;
24459;SDS011;12630;50.860;5.714;2022-12-18T08:47:54;11.35;;;7.22;;
24459;SDS011;12630;50.860;5.714;2022-12-18T08:50:23;12.18;;;7.40;;
24459;SDS011;12630;50.860;5.714;2022-12-18T08:52:50;12.27;;;7.10;;
24459;SDS011;12630;50.860;5.714;2022-12-18T08:55:18;13.88;;;7.05;;
24459;SDS011;12630;50.860;5.714;2022-12-18T08:57:47;12.05;;;7.00;;
24459;SDS011;12630;50.860;5.714;2022-12-18T09:00:15;13.45;;;7.25;;
24459;SDS011;12630;50.860;5.714;2022-12-18T09:02:43;12.52;;;6.97;;
24459;SDS011;12630;50.860;5.714;2022-12-18T09:05:10;13.68;;;7.97;;
24459;SDS011;12630;50.860;5.714;2022-12-18T09:07:39;15.60;;;7.40;;
24459;SDS011;12630;50.860;5.714;2022-12-18T09:10:06;10.02;;;6.80;;
24459;SDS011;12630;50.860;5.714;2022-12-18T09:12:34;13.60;;;7.55;;
24459;SDS011;12630;50.860;5.714;2022-12-18T09:15:01;12.93;;;6.70;;
24459;SDS011;12630;50.860;5.714;2022-12-18T09:17:29;13.85;;;7.55;;
24459;SDS011;12630;50.860;5.714;2022-12-18T09:19:56;12.95;;;6.90;;
24459;SDS011;12630;50.860;5.714;2022-12-18T09:22:23;13.07;;;7.28;;
24459;SDS011;12630;50.860;5.714;2022-12-18T09:24:52;16.20;;;7.47;;
24459;SDS011;12630;50.860;5.714;2022-12-18T09:27:19;18.55;;;8.18;;
24459;SDS011;12630;50.860;5.714;2022-12-18T09:29:46;14.15;;;8.02;;
24459;SDS011;12630;50.860;5.714;2022-12-18T09:32:14;12.85;;;7.45;;
24459;SDS011;12630;50.860;5.714;2022-12-18T09:34:41;11.00;;;6.95;;
24459;SDS011;12630;50.860;5.714;2022-12-18T09:37:08;13.80;;;8.07;;
24459;SDS011;12630;50.860;5.714;2022-12-18T09:39:35;13.93;;;7.30;;
24459;SDS011;12630;50.860;5.714;2022-12-18T09:42:04;13.88;;;7.93;;
24459;SDS011;12630;50.860;5.714;2022-12-18T09:44:33;15.63;;;8.20;;
24459;SDS011;12630;50.860;5.714;2022-12-18T09:47:08;14.20;;;7.57;;
24459;SDS011;12630;50.860;5.714;2022-12-18T09:49:41;15.77;;;8.80;;
24459;SDS011;12630;50.860;5.714;2022-12-18T09:52:12;15.57;;;8.35;;
24459;SDS011;12630;50.860;5.714;2022-12-18T09:54:44;12.60;;;7.53;;
24459;SDS011;12630;50.860;5.714;2022-12-18T09:57:18;12.70;;;7.25;;
24459;SDS011;12630;50.860;5.714;2022-12-18T09:59:48;13.88;;;7.50;;
24459;SDS011;12630;50.860;5.714;2022-12-18T10:02:19;12.82;;;7.18;;
24459;SDS011;12630;50.860;5.714;2022-12-18T10:04:52;11.40;;;6.35;;
24459;SDS011;12630;50.860;5.714;2022-12-18T10:07:29;13.35;;;7.05;;
24459;SDS011;12630;50.860;5.714;2022-12-18T10:10:06;12.30;;;7.35;;
24459;SDS011;12630;50.860;5.714;2022-12-18T10:12:42;20.50;;;7.88;;
24459;SDS011;12630;50.860;5.714;2022-12-18T10:15:17;16.27;;;8.70;;
24459;SDS011;12630;50.860;5.714;2022-12-18T10:17:51;19.20;;;9.52;;
24459;SDS011;12630;50.860;5.714;2022-12-18T10:20:24;14.10;;;7.72;;
24459;SDS011;12630;50.860;5.714;2022-12-18T10:23:02;14.60;;;7.55;;
24459;SDS011;12630;50.860;5.714;2022-12-18T10:25:41;11.25;;;7.47;;
24459;SDS011;12630;50.860;5.714;2022-12-18T10:28:20;12.63;;;7.30;;
24459;SDS011;12630;50.860;5.714;2022-12-18T10:30:49;13.18;;;7.80;;
24459;SDS011;12630;50.860;5.714;2022-12-18T10:33:18;12.55;;;7.20;;
24459;SDS011;12630;50.860;5.714;2022-12-18T10:38:20;13.05;;;7.47;;
24459;SDS011;12630;50.860;5.714;2022-12-18T10:40:51;16.05;;;8.15;;
24459;SDS011;12630;50.860;5.714;2022-12-18T10:48:31;12.93;;;7.40;;
24459;SDS011;12630;50.860;5.714;2022-12-18T10:51:00;15.57;;;8.23;;
24459;SDS011;12630;50.860;5.714;2022-12-18T10:53:28;16.83;;;8.63;;
24459;SDS011;12630;50.860;5.714;2022-12-18T10:55:58;17.10;;;8.98;;
24459;SDS011;12630;50.860;5.714;2022-12-18T10:58:30;15.30;;;8.60;;
24459;SDS011;12630;50.860;5.714;2022-12-18T11:01:04;15.13;;;8.90;;
24459;SDS011;12630;50.860;5.714;2022-12-18T11:03:34;13.18;;;7.75;;
24459;SDS011;12630;50.860;5.714;2022-12-18T11:06:05;15.05;;;8.30;;
24459;SDS011;12630;50.860;5.714;2022-12-18T11:08:34;19.35;;;9.27;;
24459;SDS011;12630;50.860;5.714;2022-12-18T11:11:02;13.93;;;7.68;;
24459;SDS011;12630;50.860;5.714;2022-12-18T11:13:35;14.00;;;8.27;;
24459;SDS011;12630;50.860;5.714;2022-12-18T11:16:03;14.77;;;8.83;;
24459;SDS011;12630;50.860;5.714;2022-12-18T11:18:31;13.95;;;7.32;;
24459;SDS011;12630;50.860;5.714;2022-12-18T11:21:05;13.40;;;8.32;;
24459;SDS011;12630;50.860;5.714;2022-12-18T11:23:33;13.18;;;7.32;;
24459;SDS011;12630;50.860;5.714;2022-12-18T11:26:03;18.10;;;8.82;;
24459;SDS011;12630;50.860;5.714;2022-12-18T11:28:37;19.00;;;8.80;;
24459;SDS011;12630;50.860;5.714;2022-12-18T11:31:16;14.43;;;8.45;;
24459;SDS011;12630;50.860;5.714;2022-12-18T11:36:15;14.25;;;7.57;;
24459;SDS011;12630;50.860;5.714;2022-12-18T11:38:43;16.60;;;8.38;;
24459;SDS011;12630;50.860;5.714;2022-12-18T11:41:14;16.90;;;9.15;;
24459;SDS011;12630;50.860;5.714;2022-12-18T11:43:50;17.05;;;9.18;;
24459;SDS011;12630;50.860;5.714;2022-12-18T11:46:23;14.07;;;8.18;;
24459;SDS011;12630;50.860;5.714;2022-12-18T11:48:58;15.18;;;9.05;;
24459;SDS011;12630;50.860;5.714;2022-12-18T11:51:32;17.05;;;9.82;;
24459;SDS011;12630;50.860;5.714;2022-12-18T11:54:04;17.83;;;9.48;;
24459;SDS011;12630;50.860;5.714;2022-12-18T11:56:40;20.27;;;10.43;;
24459;SDS011;12630;50.860;5.714;2022-12-18T11:59:15;19.42;;;9.88;;
24459;SDS011;12630;50.860;5.714;2022-12-18T12:01:52;13.48;;;8.05;;
24459;SDS011;12630;50.860;5.714;2022-12-18T12:04:26;15.55;;;8.55;;
24459;SDS011;12630;50.860;5.714;2022-12-18T12:07:11;17.33;;;9.68;;
24459;SDS011;12630;50.860;5.714;2022-12-18T12:09:46;18.48;;;9.65;;
24459;SDS011;12630;50.860;5.714;2022-12-18T12:12:28;16.90;;;9.55;;
24459;SDS011;12630;50.860;5.714;2022-12-18T12:15:16;19.17;;;9.48;;
24459;SDS011;12630;50.860;5.714;2022-12-18T12:17:53;17.67;;;9.43;;
24459;SDS011;12630;50.860;5.714;2022-12-18T12:20:30;17.65;;;10.07;;
24459;SDS011;12630;50.860;5.714;2022-12-18T12:23:13;15.75;;;8.93;;
24459;SDS011;12630;50.860;5.714;2022-12-18T12:25:49;19.17;;;9.52;;
24459;SDS011;12630;50.860;5.714;2022-12-18T12:28:24;16.65;;;10.13;;
24459;SDS011;12630;50.860;5.714;2022-12-18T12:31:05;22.25;;;10.48;;
24459;SDS011;12630;50.860;5.714;2022-12-18T12:36:16;17.10;;;9.90;;
24459;SDS011;12630;50.860;5.714;2022-12-18T12:38:49;19.52;;;10.20;;
24459;SDS011;12630;50.860;5.714;2022-12-18T12:41:21;19.50;;;10.50;;
24459;SDS011;12630;50.860;5.714;2022-12-18T12:44:09;20.67;;;9.82;;
24459;SDS011;12630;50.860;5.714;2022-12-18T12:46:43;16.33;;;9.77;;
24459;SDS011;12630;50.860;5.714;2022-12-18T12:49:11;17.33;;;10.57;;
24459;SDS011;12630;50.860;5.714;2022-12-18T12:51:42;17.58;;;9.77;;
24459;SDS011;12630;50.860;5.714;2022-12-18T12:54:14;15.45;;;9.90;;
24459;SDS011;12630;50.860;5.714;2022-12-18T12:56:45;18.58;;;10.25;;
24459;SDS011;12630;50.860;5.714;2022-12-18T12:59:23;15.98;;;9.23;;
24459;SDS011;12630;50.860;5.714;2022-12-18T13:01:57;14.63;;;8.93;;
24459;SDS011;12630;50.860;5.714;2022-12-18T13:04:33;14.32;;;9.30;;
24459;SDS011;12630;50.860;5.714;2022-12-18T13:07:08;20.45;;;10.18;;
24459;SDS011;12630;50.860;5.714;2022-12-18T13:12:51;16.20;;;10.00;;
24459;SDS011;12630;50.860;5.714;2022-12-18T13:15:21;13.93;;;9.55;;
24459;SDS011;12630;50.860;5.714;2022-12-18T13:18:03;17.13;;;9.77;;
24459;SDS011;12630;50.860;5.714;2022-12-18T13:21:02;21.50;;;10.48;;
24459;SDS011;12630;50.860;5.714;2022-12-18T13:23:40;17.50;;;9.52;;
24459;SDS011;12630;50.860;5.714;2022-12-18T13:28:58;15.57;;;9.35;;
24459;SDS011;12630;50.860;5.714;2022-12-18T13:34:29;15.48;;;8.80;;
24459;SDS011;12630;50.860;5.714;2022-12-18T13:37:35;16.90;;;9.40;;
24459;SDS011;12630;50.860;5.714;2022-12-18T13:43:23;19.15;;;10.63;;
24459;SDS011;12630;50.860;5.714;2022-12-18T13:46:16;19.10;;;10.02;;
24459;SDS011;12630;50.860;5.714;2022-12-18T13:48:50;18.67;;;9.95;;
24459;SDS011;12630;50.860;5.714;2022-12-18T13:51:21;14.85;;;9.50;;
24459;SDS011;12630;50.860;5.714;2022-12-18T13:53:50;16.48;;;10.10;;
24459;SDS011;12630;50.860;5.714;2022-12-18T13:59:03;18.15;;;10.27;;
24459;SDS011;12630;50.860;5.714;2022-12-18T14:01:44;17.98;;;10.73;;
24459;SDS011;12630;50.860;5.714;2022-12-18T14:04:18;23.60;;;12.23;;
24459;SDS011;12630;50.860;5.714;2022-12-18T14:06:49;21.85;;;11.13;;
24459;SDS011;12630;50.860;5.714;2022-12-18T14:09:19;20.13;;;11.77;;
24459;SDS011;12630;50.860;5.714;2022-12-18T14:11:51;21.48;;;11.93;;
24459;SDS011;12630;50.860;5.714;2022-12-18T14:14:41;16.25;;;10.52;;
24459;SDS011;12630;50.860;5.714;2022-12-18T14:19:40;24.80;;;13.38;;
24459;SDS011;12630;50.860;5.714;2022-12-18T14:22:14;22.70;;;12.30;;
24459;SDS011;12630;50.860;5.714;2022-12-18T14:24:43;21.67;;;11.90;;
24459;SDS011;12630;50.860;5.714;2022-12-18T14:27:21;21.67;;;12.65;;
24459;SDS011;12630;50.860;5.714;2022-12-18T14:29:50;21.90;;;12.20;;
24459;SDS011;12630;50.860;5.714;2022-12-18T14:32:18;21.42;;;12.63;;
24459;SDS011;12630;50.860;5.714;2022-12-18T14:34:47;22.70;;;12.75;;
24459;SDS011;12630;50.860;5.714;2022-12-18T14:37:17;23.38;;;13.45;;
24459;SDS011;12630;50.860;5.714;2022-12-18T14:39:55;23.77;;;12.35;;
24459;SDS011;12630;50.860;5.714;2022-12-18T14:42:23;23.55;;;13.13;;
24459;SDS011;12630;50.860;5.714;2022-12-18T14:47:54;20.58;;;12.48;;
24459;SDS011;12630;50.860;5.714;2022-12-18T14:50:21;26.58;;;14.43;;
24459;SDS011;12630;50.860;5.714;2022-12-18T14:52:50;26.40;;;12.65;;
24459;SDS011;12630;50.860;5.714;2022-12-18T14:55:18;23.65;;;12.88;;
24459;SDS011;12630;50.860;5.714;2022-12-18T14:57:48;24.50;;;14.18;;
24459;SDS011;12630;50.860;5.714;2022-12-18T15:00:18;23.00;;;12.98;;
24459;SDS011;12630;50.860;5.714;2022-12-18T15:02:48;23.75;;;13.40;;
24459;SDS011;12630;50.860;5.714;2022-12-18T15:05:19;24.60;;;12.90;;
24459;SDS011;12630;50.860;5.714;2022-12-18T15:07:53;24.23;;;12.75;;
24459;SDS011;12630;50.860;5.714;2022-12-18T15:10:22;24.42;;;13.70;;
